sensor_id;sensor_type;location;lat;lon;timestamp;pressure;altitude;pressure_sealevel;temperature;humidity
12868;BME280;33517;49.866;8.320;2023-06-14T00:00:41;100102.88;;;15.85;51.30
12868;BME280;33517;49.866;8.320;2023-06-14T00:03:36;100110.25;;;15.83;51.96
12868;BME280;33517;49.866;8.320;2023-06-14T00:06:29;100102.91;;;15.79;51.55
12868;BME280;33517;49.866;8.320;2023-06-14T00:09:21;100100.66;;;15.76;52.27
12868;BME280;33517;49.866;8.320;2023-06-14T00:12:13;100101.09;;;15.73;52.05
12868;BME280;33517;49.866;8.320;2023-06-14T00:15:06;100097.00;;;15.70;52.22
12868;BME280;33517;49.866;8.320;2023-06-14T00:17:58;100095.56;;;15.67;52.21
12868;BME280;33517;49.866;8.320;2023-06-14T00:20:52;100101.06;;;15.66;52.66
12868;BME280;33517;49.866;8.320;2023-06-14T00:23:44;100093.31;;;15.64;52.88
12868;BME280;33517;49.866;8.320;2023-06-14T00:26:36;100093.31;;;15.64;52.89
12868;BME280;33517;49.866;8.320;2023-06-14T00:29:27;100094.53;;;15.62;53.09
12868;BME280;33517;49.866;8.320;2023-06-14T00:32:19;100089.44;;;15.60;52.71
12868;BME280;33517;49.866;8.320;2023-06-14T00:35:16;100086.59;;;15.62;53.06
12868;BME280;33517;49.866;8.320;2023-06-14T00:38:09;100095.78;;;15.66;53.11
12868;BME280;33517;49.866;8.320;2023-06-14T00:41:01;100095.38;;;15.69;53.26
12868;BME280;33517;49.866;8.320;2023-06-14T00:43:53;100094.94;;;15.72;53.71
12868;BME280;33517;49.866;8.320;2023-06-14T00:46:47;100097.59;;;15.72;53.27
12868;BME280;33517;49.866;8.320;2023-06-14T00:49:39;100090.47;;;15.73;53.48
12868;BME280;33517;49.866;8.320;2023-06-14T00:52:31;100095.78;;;15.73;53.38
12868;BME280;33517;49.866;8.320;2023-06-14T00:55:24;100093.94;;;15.73;53.83
12868;BME280;33517;49.866;8.320;2023-06-14T00:58:16;100096.38;;;15.81;54.68
12868;BME280;33517;49.866;8.320;2023-06-14T01:01:08;100099.41;;;15.91;54.27
12868;BME280;33517;49.866;8.320;2023-06-14T01:04:00;100101.81;;;16.19;54.73
12868;BME280;33517;49.866;8.320;2023-06-14T01:06:59;100103.97;;;16.41;53.35
12868;BME280;33517;49.866;8.320;2023-06-14T01:10:03;100098.66;;;16.54;52.67
12868;BME280;33517;49.866;8.320;2023-06-14T01:12:58;100106.75;;;16.66;52.36
12868;BME280;33517;49.866;8.320;2023-06-14T01:15:55;100105.31;;;16.70;51.91
12868;BME280;33517;49.866;8.320;2023-06-14T01:18:47;100105.88;;;16.79;51.81
12868;BME280;33517;49.866;8.320;2023-06-14T01:21:40;100107.69;;;16.85;51.38
12868;BME280;33517;49.866;8.320;2023-06-14T01:24:34;100104.63;;;16.88;50.75
12868;BME280;33517;49.866;8.320;2023-06-14T01:27:26;100105.41;;;16.88;51.12
12868;BME280;33517;49.866;8.320;2023-06-14T01:30:21;100103.16;;;16.92;51.27
12868;BME280;33517;49.866;8.320;2023-06-14T01:33:18;100102.97;;;16.87;51.01
12868;BME280;33517;49.866;8.320;2023-06-14T01:36:11;100107.69;;;16.85;50.69
12868;BME280;33517;49.866;8.320;2023-06-14T01:39:04;100115.06;;;16.83;51.15
12868;BME280;33517;49.866;8.320;2023-06-14T01:41:58;100106.84;;;16.91;51.09
12868;BME280;33517;49.866;8.320;2023-06-14T01:44:52;100108.03;;;17.01;50.26
12868;BME280;33517;49.866;8.320;2023-06-14T01:47:45;100114.50;;;17.05;50.59
12868;BME280;33517;49.866;8.320;2023-06-14T01:50:38;100111.59;;;17.13;50.18
12868;BME280;33517;49.866;8.320;2023-06-14T01:53:30;100108.66;;;17.28;49.67
12868;BME280;33517;49.866;8.320;2023-06-14T01:56:22;100114.13;;;17.33;49.65
12868;BME280;33517;49.866;8.320;2023-06-14T01:59:15;100114.13;;;17.33;49.56
12868;BME280;33517;49.866;8.320;2023-06-14T02:02:07;100105.56;;;17.31;49.39
12868;BME280;33517;49.866;8.320;2023-06-14T02:04:59;100109.88;;;17.25;49.86
12868;BME280;33517;49.866;8.320;2023-06-14T02:07:52;100111.09;;;17.29;49.62
12868;BME280;33517;49.866;8.320;2023-06-14T02:10:44;100113.53;;;17.31;49.16
12868;BME280;33517;49.866;8.320;2023-06-14T02:13:36;100115.97;;;17.32;49.55
12868;BME280;33517;49.866;8.320;2023-06-14T02:16:29;100114.72;;;17.35;48.97
12868;BME280;33517;49.866;8.320;2023-06-14T02:19:23;100121.84;;;17.41;48.77
12868;BME280;33517;49.866;8.320;2023-06-14T02:22:15;100124.06;;;17.44;48.79
12868;BME280;33517;49.866;8.320;2023-06-14T02:25:08;100121.63;;;17.49;48.84
12868;BME280;33517;49.866;8.320;2023-06-14T02:28:00;100117.31;;;17.48;49.05
12868;BME280;33517;49.866;8.320;2023-06-14T02:30:52;100122.22;;;17.51;48.30
12868;BME280;33517;49.866;8.320;2023-06-14T02:33:45;100119.97;;;17.48;48.41
12868;BME280;33517;49.866;8.320;2023-06-14T02:36:37;100112.81;;;17.48;48.63
12868;BME280;33517;49.866;8.320;2023-06-14T02:39:32;100121.19;;;17.52;48.43
12868;BME280;33517;49.866;8.320;2023-06-14T02:42:23;100117.47;;;17.53;48.24
12868;BME280;33517;49.866;8.320;2023-06-14T02:45:15;100118.75;;;17.51;48.14
12868;BME280;33517;49.866;8.320;2023-06-14T02:48:07;100106.03;;;17.46;48.34
12868;BME280;33517;49.866;8.320;2023-06-14T02:51:00;100110.16;;;17.42;48.58
12868;BME280;33517;49.866;8.320;2023-06-14T02:53:52;100117.53;;;17.40;48.86
12868;BME280;33517;49.866;8.320;2023-06-14T02:56:44;100116.94;;;17.38;47.97
12868;BME280;33517;49.866;8.320;2023-06-14T02:59:36;100113.09;;;17.34;48.60
12868;BME280;33517;49.866;8.320;2023-06-14T03:02:27;100115.75;;;17.34;48.53
12868;BME280;33517;49.866;8.320;2023-06-14T03:05:19;100116.78;;;17.33;48.61
12868;BME280;33517;49.866;8.320;2023-06-14T03:08:14;100121.66;;;17.36;49.39
12868;BME280;33517;49.866;8.320;2023-06-14T03:11:07;100121.66;;;17.36;49.32
12868;BME280;33517;49.866;8.320;2023-06-14T03:14:00;100125.75;;;17.38;49.87
12868;BME280;33517;49.866;8.320;2023-06-14T03:16:54;100130.84;;;17.40;49.24
12868;BME280;33517;49.866;8.320;2023-06-14T03:19:47;100125.72;;;17.45;49.62
12868;BME280;33517;49.866;8.320;2023-06-14T03:22:39;100139.22;;;17.43;49.25
12868;BME280;33517;49.866;8.320;2023-06-14T03:25:33;100142.09;;;17.42;49.88
12868;BME280;33517;49.866;8.320;2023-06-14T03:28:26;100146.81;;;17.40;49.29
12868;BME280;33517;49.866;8.320;2023-06-14T03:31:18;100145.00;;;17.34;49.73
12868;BME280;33517;49.866;8.320;2023-06-14T03:34:10;100150.13;;;17.35;49.57
12868;BME280;33517;49.866;8.320;2023-06-14T03:37:02;100156.09;;;17.31;49.76
12868;BME280;33517;49.866;8.320;2023-06-14T03:39:53;100164.31;;;17.23;49.66
12868;BME280;33517;49.866;8.320;2023-06-14T03:42:47;100164.56;;;17.15;49.69
12868;BME280;33517;49.866;8.320;2023-06-14T03:45:39;100170.09;;;17.13;50.00
12868;BME280;33517;49.866;8.320;2023-06-14T03:48:30;100181.41;;;17.09;50.10
12868;BME280;33517;49.866;8.320;2023-06-14T03:51:22;100173.00;;;17.05;50.48
12868;BME280;33517;49.866;8.320;2023-06-14T03:54:15;100181.63;;;17.01;50.32
12868;BME280;33517;49.866;8.320;2023-06-14T03:57:07;100183.47;;;17.00;50.42
12868;BME280;33517;49.866;8.320;2023-06-14T04:00:00;100191.22;;;17.02;50.69
12868;BME280;33517;49.866;8.320;2023-06-14T04:02:55;100193.47;;;17.05;50.22
12868;BME280;33517;49.866;8.320;2023-06-14T04:05:47;100191.44;;;17.07;50.03
12868;BME280;33517;49.866;8.320;2023-06-14T04:08:39;100198.13;;;17.09;50.20
12868;BME280;33517;49.866;8.320;2023-06-14T04:11:32;100198.13;;;17.16;50.53
12868;BME280;33517;49.866;8.320;2023-06-14T04:14:23;100200.53;;;17.24;49.99
12868;BME280;33517;49.866;8.320;2023-06-14T04:17:17;100200.28;;;17.32;49.54
12868;BME280;33517;49.866;8.320;2023-06-14T04:20:09;100198.81;;;17.36;49.62
12868;BME280;33517;49.866;8.320;2023-06-14T04:23:11;100202.47;;;17.41;50.02
12868;BME280;33517;49.866;8.320;2023-06-14T04:26:03;100205.72;;;17.50;49.49
12868;BME280;33517;49.866;8.320;2023-06-14T04:28:55;100212.84;;;17.56;49.82
12868;BME280;33517;49.866;8.320;2023-06-14T04:31:54;100214.22;;;17.65;49.36
12868;BME280;33517;49.866;8.320;2023-06-14T04:34:50;100213.13;;;17.73;49.73
12868;BME280;33517;49.866;8.320;2023-06-14T04:37:44;100213.31;;;17.78;49.26
12868;BME280;33517;49.866;8.320;2023-06-14T04:40:36;100215.31;;;17.82;49.73
12868;BME280;33517;49.866;8.320;2023-06-14T04:43:33;100217.94;;;17.89;49.64
12868;BME280;33517;49.866;8.320;2023-06-14T04:46:29;100216.63;;;17.98;49.28
12868;BME280;33517;49.866;8.320;2023-06-14T04:49:22;100218.78;;;18.07;48.73
12868;BME280;33517;49.866;8.320;2023-06-14T04:52:15;100221.41;;;18.14;49.00
12868;BME280;33517;49.866;8.320;2023-06-14T04:55:08;100226.84;;;18.25;48.97
12868;BME280;33517;49.866;8.320;2023-06-14T04:58:00;100227.59;;;18.32;48.67
12868;BME280;33517;49.866;8.320;2023-06-14T05:00:52;100235.72;;;18.37;48.39
12868;BME280;33517;49.866;8.320;2023-06-14T05:03:46;100235.06;;;18.49;48.32
12868;BME280;33517;49.866;8.320;2023-06-14T05:06:39;100240.66;;;18.59;48.49
12868;BME280;33517;49.866;8.320;2023-06-14T05:09:32;100242.03;;;18.68;48.50
12868;BME280;33517;49.866;8.320;2023-06-14T05:12:24;100244.97;;;18.78;47.95
12868;BME280;33517;49.866;8.320;2023-06-14T05:15:16;100238.31;;;18.87;48.25
12868;BME280;33517;49.866;8.320;2023-06-14T05:18:08;100242.38;;;18.89;48.57
12868;BME280;33517;49.866;8.320;2023-06-14T05:21:00;100240.47;;;18.96;47.78
12868;BME280;33517;49.866;8.320;2023-06-14T05:23:52;100249.56;;;19.07;47.68
12868;BME280;33517;49.866;8.320;2023-06-14T05:26:46;100246.59;;;19.15;47.81
12868;BME280;33517;49.866;8.320;2023-06-14T05:29:38;100255.91;;;19.24;47.49
12868;BME280;33517;49.866;8.320;2023-06-14T05:32:30;100254.16;;;19.36;47.66
12868;BME280;33517;49.866;8.320;2023-06-14T05:35:22;100257.09;;;19.46;47.05
12868;BME280;33517;49.866;8.320;2023-06-14T05:38:17;100255.59;;;19.50;46.87
12868;BME280;33517;49.866;8.320;2023-06-14T05:41:08;100259.41;;;19.54;46.78
12868;BME280;33517;49.866;8.320;2023-06-14T05:44:02;100257.84;;;19.65;46.57
12868;BME280;33517;49.866;8.320;2023-06-14T05:46:53;100266.81;;;19.70;46.15
12868;BME280;33517;49.866;8.320;2023-06-14T05:49:45;100264.03;;;19.77;46.20
12868;BME280;33517;49.866;8.320;2023-06-14T05:52:37;100265.94;;;19.88;46.44
12868;BME280;33517;49.866;8.320;2023-06-14T05:55:29;100266.75;;;20.00;46.17
12868;BME280;33517;49.866;8.320;2023-06-14T05:58:21;100275.84;;;20.10;45.81
12868;BME280;33517;49.866;8.320;2023-06-14T06:01:14;100282.50;;;20.19;45.83
12868;BME280;33517;49.866;8.320;2023-06-14T06:04:06;100276.81;;;20.39;45.68
12868;BME280;33517;49.866;8.320;2023-06-14T06:06:58;100275.78;;;20.52;45.48
12868;BME280;33517;49.866;8.320;2023-06-14T06:09:50;100279.75;;;20.38;45.20
12868;BME280;33517;49.866;8.320;2023-06-14T06:12:42;100280.31;;;20.51;45.62
12868;BME280;33517;49.866;8.320;2023-06-14T06:15:34;100280.91;;;20.76;45.06
12868;BME280;33517;49.866;8.320;2023-06-14T06:18:27;100284.50;;;21.05;44.89
12868;BME280;33517;49.866;8.320;2023-06-14T06:21:19;100283.38;;;21.29;44.53
12868;BME280;33517;49.866;8.320;2023-06-14T06:24:11;100287.44;;;21.88;43.14
12868;BME280;33517;49.866;8.320;2023-06-14T06:27:03;100294.69;;;23.78;39.28
12868;BME280;33517;49.866;8.320;2023-06-14T06:29:55;100294.84;;;26.86;33.79
12868;BME280;33517;49.866;8.320;2023-06-14T06:32:47;100317.63;;;28.60;31.34
12868;BME280;33517;49.866;8.320;2023-06-14T06:35:42;100322.25;;;29.78;29.49
12868;BME280;33517;49.866;8.320;2023-06-14T06:38:34;100320.13;;;30.58;28.95
12868;BME280;33517;49.866;8.320;2023-06-14T06:41:26;100321.81;;;31.13;28.29
12868;BME280;33517;49.866;8.320;2023-06-14T06:44:18;100325.72;;;31.61;27.42
12868;BME280;33517;49.866;8.320;2023-06-14T06:47:10;100327.28;;;32.12;26.78
12868;BME280;33517;49.866;8.320;2023-06-14T06:50:02;100327.59;;;32.32;26.34
12868;BME280;33517;49.866;8.320;2023-06-14T06:52:55;100327.38;;;32.73;25.69
12868;BME280;33517;49.866;8.320;2023-06-14T06:55:48;100318.38;;;33.51;25.46
12868;BME280;33517;49.866;8.320;2023-06-14T06:58:40;100320.56;;;33.40;24.23
12868;BME280;33517;49.866;8.320;2023-06-14T07:01:31;100322.06;;;32.68;24.92
12868;BME280;33517;49.866;8.320;2023-06-14T07:04:24;100322.50;;;33.31;24.60
12868;BME280;33517;49.866;8.320;2023-06-14T07:07:17;100326.19;;;32.57;24.80
12868;BME280;33517;49.866;8.320;2023-06-14T07:10:10;100322.31;;;32.89;24.49
12868;BME280;33517;49.866;8.320;2023-06-14T07:13:02;100322.66;;;33.26;24.82
12868;BME280;33517;49.866;8.320;2023-06-14T07:15:57;100329.31;;;33.12;24.34
12868;BME280;33517;49.866;8.320;2023-06-14T07:18:49;100326.44;;;33.82;24.13
12868;BME280;33517;49.866;8.320;2023-06-14T07:21:41;100330.44;;;34.27;23.13
12868;BME280;33517;49.866;8.320;2023-06-14T07:24:33;100335.22;;;34.64;23.29
12868;BME280;33517;49.866;8.320;2023-06-14T07:27:28;100334.88;;;35.41;22.84
12868;BME280;33517;49.866;8.320;2023-06-14T07:30:20;100325.03;;;35.49;22.18
12868;BME280;33517;49.866;8.320;2023-06-14T07:33:16;100333.03;;;36.03;22.05
12868;BME280;33517;49.866;8.320;2023-06-14T07:36:08;100331.47;;;36.92;21.63
12868;BME280;33517;49.866;8.320;2023-06-14T07:39:00;100337.97;;;37.24;21.25
12868;BME280;33517;49.866;8.320;2023-06-14T07:41:54;100336.25;;;37.19;19.98
12868;BME280;33517;49.866;8.320;2023-06-14T07:44:47;100339.69;;;36.15;20.88
12868;BME280;33517;49.866;8.320;2023-06-14T07:47:39;100331.06;;;36.37;21.08
12868;BME280;33517;49.866;8.320;2023-06-14T07:50:30;100338.81;;;36.23;20.63
12868;BME280;33517;49.866;8.320;2023-06-14T07:53:23;100337.06;;;36.18;21.21
12868;BME280;33517;49.866;8.320;2023-06-14T07:56:15;100334.31;;;37.08;20.35
12868;BME280;33517;49.866;8.320;2023-06-14T07:59:07;100337.13;;;37.71;20.58
12868;BME280;33517;49.866;8.320;2023-06-14T08:02:00;100328.03;;;37.95;19.93
12868;BME280;33517;49.866;8.320;2023-06-14T08:04:52;100337.66;;;38.29;19.32
12868;BME280;33517;49.866;8.320;2023-06-14T08:07:43;100339.09;;;38.38;19.60
12868;BME280;33517;49.866;8.320;2023-06-14T08:10:35;100327.13;;;39.40;18.84
12868;BME280;33517;49.866;8.320;2023-06-14T08:13:27;100343.66;;;39.55;18.91
12868;BME280;33517;49.866;8.320;2023-06-14T08:16:19;100334.84;;;40.23;18.31
12868;BME280;33517;49.866;8.320;2023-06-14T08:19:12;100328.19;;;39.35;18.53
12868;BME280;33517;49.866;8.320;2023-06-14T08:22:04;100332.31;;;39.61;18.52
12868;BME280;33517;49.866;8.320;2023-06-14T08:24:56;100330.28;;;38.76;18.65
12868;BME280;33517;49.866;8.320;2023-06-14T08:27:48;100328.72;;;38.63;18.06
12868;BME280;33517;49.866;8.320;2023-06-14T08:30:41;100328.75;;;39.95;18.23
12868;BME280;33517;49.866;8.320;2023-06-14T08:33:33;100340.16;;;40.54;17.71
12868;BME280;33517;49.866;8.320;2023-06-14T08:36:27;100335.16;;;39.64;17.92
12868;BME280;33517;49.866;8.320;2023-06-14T08:39:18;100327.44;;;39.89;17.81
12868;BME280;33517;49.866;8.320;2023-06-14T08:42:11;100332.22;;;39.07;18.29
12868;BME280;33517;49.866;8.320;2023-06-14T08:45:04;100333.59;;;39.82;17.96
12868;BME280;33517;49.866;8.320;2023-06-14T08:47:56;100338.94;;;39.56;17.21
12868;BME280;33517;49.866;8.320;2023-06-14T08:50:50;100336.09;;;39.72;17.10
12868;BME280;33517;49.866;8.320;2023-06-14T08:53:43;100328.53;;;40.03;17.34
12868;BME280;33517;49.866;8.320;2023-06-14T08:56:37;100339.44;;;41.02;16.70
12868;BME280;33517;49.866;8.320;2023-06-14T08:59:32;100334.97;;;40.94;16.24
12868;BME280;33517;49.866;8.320;2023-06-14T09:02:29;100343.41;;;40.60;16.65
12868;BME280;33517;49.866;8.320;2023-06-14T09:05:22;100330.41;;;40.18;16.62
12868;BME280;33517;49.866;8.320;2023-06-14T09:08:14;100329.16;;;39.43;17.28
12868;BME280;33517;49.866;8.320;2023-06-14T09:11:08;100331.31;;;39.69;17.55
12868;BME280;33517;49.866;8.320;2023-06-14T09:14:00;100321.84;;;40.65;17.34
12868;BME280;33517;49.866;8.320;2023-06-14T09:16:52;100340.25;;;41.85;16.59
12868;BME280;33517;49.866;8.320;2023-06-14T09:19:45;100351.97;;;42.01;15.11
12868;BME280;33517;49.866;8.320;2023-06-14T09:22:37;100341.22;;;40.27;16.67
12868;BME280;33517;49.866;8.320;2023-06-14T09:25:29;100342.03;;;40.92;16.67
12868;BME280;33517;49.866;8.320;2023-06-14T09:28:26;100351.44;;;41.36;16.48
12868;BME280;33517;49.866;8.320;2023-06-14T09:31:20;100352.13;;;41.07;15.43
12868;BME280;33517;49.866;8.320;2023-06-14T09:34:12;100354.00;;;39.62;16.54
12868;BME280;33517;49.866;8.320;2023-06-14T09:37:05;100352.47;;;40.37;16.22
12868;BME280;33517;49.866;8.320;2023-06-14T09:39:57;100350.16;;;40.39;15.87
12868;BME280;33517;49.866;8.320;2023-06-14T09:42:49;100353.38;;;38.87;16.82
12868;BME280;33517;49.866;8.320;2023-06-14T09:45:43;100362.47;;;38.60;17.49
12868;BME280;33517;49.866;8.320;2023-06-14T09:48:36;100351.88;;;37.91;18.17
12868;BME280;33517;49.866;8.320;2023-06-14T09:51:33;100344.06;;;40.11;16.49
12868;BME280;33517;49.866;8.320;2023-06-14T09:54:26;100350.19;;;39.86;16.58
12868;BME280;33517;49.866;8.320;2023-06-14T09:57:21;100346.72;;;40.46;16.53
12868;BME280;33517;49.866;8.320;2023-06-14T10:00:15;100348.09;;;41.01;16.23
12868;BME280;33517;49.866;8.320;2023-06-14T10:03:13;100345.06;;;41.09;17.06
12868;BME280;33517;49.866;8.320;2023-06-14T10:06:08;100336.84;;;40.45;16.36
12868;BME280;33517;49.866;8.320;2023-06-14T10:09:01;100339.69;;;40.10;17.20
12868;BME280;33517;49.866;8.320;2023-06-14T10:11:56;100342.63;;;40.36;16.52
12868;BME280;33517;49.866;8.320;2023-06-14T10:14:49;100342.66;;;39.83;17.37
12868;BME280;33517;49.866;8.320;2023-06-14T10:17:46;100346.75;;;40.69;17.27
12868;BME280;33517;49.866;8.320;2023-06-14T10:20:42;100348.81;;;38.63;17.88
12868;BME280;33517;49.866;8.320;2023-06-14T10:23:37;100347.91;;;40.90;17.46
12868;BME280;33517;49.866;8.320;2023-06-14T10:26:32;100343.34;;;41.24;16.09
12868;BME280;33517;49.866;8.320;2023-06-14T10:29:24;100352.13;;;41.59;15.61
12868;BME280;33517;49.866;8.320;2023-06-14T10:32:16;100340.94;;;38.07;18.75
12868;BME280;33517;49.866;8.320;2023-06-14T10:35:16;100338.38;;;38.26;18.32
12868;BME280;33517;49.866;8.320;2023-06-14T10:38:11;100338.28;;;38.65;18.04
12868;BME280;33517;49.866;8.320;2023-06-14T10:41:04;100348.22;;;38.15;18.87
12868;BME280;33517;49.866;8.320;2023-06-14T10:44:38;100342.69;;;40.02;17.56
12868;BME280;33517;49.866;8.320;2023-06-14T10:47:31;100348.13;;;38.82;18.02
12868;BME280;33517;49.866;8.320;2023-06-14T10:50:28;100350.69;;;39.91;17.75
12868;BME280;33517;49.866;8.320;2023-06-14T10:53:24;100338.75;;;40.22;17.81
12868;BME280;33517;49.866;8.320;2023-06-14T10:56:29;100347.38;;;37.23;19.35
12868;BME280;33517;49.866;8.320;2023-06-14T10:59:21;100355.44;;;36.83;19.10
12868;BME280;33517;49.866;8.320;2023-06-14T11:02:40;100351.25;;;39.12;18.22
12868;BME280;33517;49.866;8.320;2023-06-14T11:05:43;100350.06;;;39.28;17.17
12868;BME280;33517;49.866;8.320;2023-06-14T11:09:31;100358.75;;;41.25;16.17
12868;BME280;33517;49.866;8.320;2023-06-14T11:12:32;100359.19;;;41.53;15.93
12868;BME280;33517;49.866;8.320;2023-06-14T11:15:28;100351.94;;;41.71;15.76
12868;BME280;33517;49.866;8.320;2023-06-14T11:18:21;100348.34;;;41.41;16.10
12868;BME280;33517;49.866;8.320;2023-06-14T11:21:18;100340.81;;;42.67;14.82
12868;BME280;33517;49.866;8.320;2023-06-14T11:24:10;100335.22;;;42.60;15.18
12868;BME280;33517;49.866;8.320;2023-06-14T11:27:04;100345.75;;;42.84;15.44
12868;BME280;33517;49.866;8.320;2023-06-14T11:29:56;100338.75;;;40.41;16.86
12868;BME280;33517;49.866;8.320;2023-06-14T11:32:50;100339.81;;;37.20;18.52
12868;BME280;33517;49.866;8.320;2023-06-14T11:35:42;100332.84;;;34.37;20.13
12868;BME280;33517;49.866;8.320;2023-06-14T11:38:35;100337.72;;;35.74;19.90
12868;BME280;33517;49.866;8.320;2023-06-14T11:41:32;100339.91;;;37.59;18.30
12868;BME280;33517;49.866;8.320;2023-06-14T11:44:26;100333.88;;;35.95;19.18
12868;BME280;33517;49.866;8.320;2023-06-14T11:47:18;100325.16;;;33.96;20.69
12868;BME280;33517;49.866;8.320;2023-06-14T11:50:10;100331.34;;;32.98;21.47
12868;BME280;33517;49.866;8.320;2023-06-14T11:53:02;100329.38;;;35.50;20.19
12868;BME280;33517;49.866;8.320;2023-06-14T11:55:58;100331.50;;;38.20;18.55
12868;BME280;33517;49.866;8.320;2023-06-14T11:58:50;100333.91;;;38.80;17.92
12868;BME280;33517;49.866;8.320;2023-06-14T12:01:44;100327.25;;;35.26;19.08
12868;BME280;33517;49.866;8.320;2023-06-14T12:04:36;100328.34;;;33.73;20.58
12868;BME280;33517;49.866;8.320;2023-06-14T12:07:30;100318.88;;;33.96;20.44
12868;BME280;33517;49.866;8.320;2023-06-14T12:10:22;100328.66;;;32.45;22.28
12868;BME280;33517;49.866;8.320;2023-06-14T12:13:16;100322.03;;;31.44;22.73
12868;BME280;33517;49.866;8.320;2023-06-14T12:16:09;100333.84;;;33.25;22.25
12868;BME280;33517;49.866;8.320;2023-06-14T12:19:08;100330.44;;;34.35;21.53
12868;BME280;33517;49.866;8.320;2023-06-14T12:22:00;100330.94;;;36.66;20.36
12868;BME280;33517;49.866;8.320;2023-06-14T12:24:55;100329.97;;;37.07;19.53
12868;BME280;33517;49.866;8.320;2023-06-14T12:27:48;100324.91;;;38.09;19.11
12868;BME280;33517;49.866;8.320;2023-06-14T12:30:40;100329.94;;;37.79;18.55
12868;BME280;33517;49.866;8.320;2023-06-14T12:33:32;100325.09;;;36.67;19.20
12868;BME280;33517;49.866;8.320;2023-06-14T12:36:25;100316.31;;;33.91;21.61
12868;BME280;33517;49.866;8.320;2023-06-14T12:39:17;100327.44;;;33.29;22.19
12868;BME280;33517;49.866;8.320;2023-06-14T12:42:09;100330.47;;;32.49;23.13
12868;BME280;33517;49.866;8.320;2023-06-14T12:45:01;100328.13;;;31.63;24.72
12868;BME280;33517;49.866;8.320;2023-06-14T12:47:53;100328.06;;;31.27;23.52
12868;BME280;33517;49.866;8.320;2023-06-14T12:50:45;100316.59;;;31.17;23.92
12868;BME280;33517;49.866;8.320;2023-06-14T12:53:38;100318.59;;;31.11;23.65
12868;BME280;33517;49.866;8.320;2023-06-14T12:56:30;100320.44;;;30.70;24.84
12868;BME280;33517;49.866;8.320;2023-06-14T12:59:22;100319.59;;;29.73;25.57
12868;BME280;33517;49.866;8.320;2023-06-14T13:02:15;100325.53;;;29.33;26.63
12868;BME280;33517;49.866;8.320;2023-06-14T13:05:08;100325.09;;;29.44;26.27
12868;BME280;33517;49.866;8.320;2023-06-14T13:08:00;100332.25;;;29.59;26.46
12868;BME280;33517;49.866;8.320;2023-06-14T13:10:53;100331.81;;;29.04;26.62
12868;BME280;33517;49.866;8.320;2023-06-14T13:13:45;100339.19;;;28.99;26.64
12868;BME280;33517;49.866;8.320;2023-06-14T13:16:37;100323.84;;;28.89;26.47
12868;BME280;33517;49.866;8.320;2023-06-14T13:19:29;100328.06;;;29.00;27.08
12868;BME280;33517;49.866;8.320;2023-06-14T13:22:21;100329.97;;;28.71;26.81
12868;BME280;33517;49.866;8.320;2023-06-14T13:25:13;100322.47;;;28.63;27.41
12868;BME280;33517;49.866;8.320;2023-06-14T13:28:06;100328.19;;;29.14;26.98
12868;BME280;33517;49.866;8.320;2023-06-14T13:30:58;100326.53;;;29.18;26.94
12868;BME280;33517;49.866;8.320;2023-06-14T13:33:50;100318.53;;;29.03;26.78
12868;BME280;33517;49.866;8.320;2023-06-14T13:36:42;100322.97;;;28.94;27.24
12868;BME280;33517;49.866;8.320;2023-06-14T13:39:34;100329.63;;;28.49;27.58
12868;BME280;33517;49.866;8.320;2023-06-14T13:42:28;100321.31;;;28.74;27.45
12868;BME280;33517;49.866;8.320;2023-06-14T13:45:23;100323.53;;;28.67;27.23
12868;BME280;33517;49.866;8.320;2023-06-14T13:48:15;100331.69;;;28.91;27.09
12868;BME280;33517;49.866;8.320;2023-06-14T13:51:06;100320.59;;;28.64;26.83
12868;BME280;33517;49.866;8.320;2023-06-14T13:53:58;100318.94;;;28.91;26.65
12868;BME280;33517;49.866;8.320;2023-06-14T13:56:50;100318.09;;;28.67;26.75
12868;BME280;33517;49.866;8.320;2023-06-14T13:59:42;100314.13;;;28.60;27.01
12868;BME280;33517;49.866;8.320;2023-06-14T14:02:35;100313.94;;;28.80;27.24
12868;BME280;33517;49.866;8.320;2023-06-14T14:05:27;100301.97;;;28.81;27.08
12868;BME280;33517;49.866;8.320;2023-06-14T14:08:20;100308.72;;;28.83;27.56
12868;BME280;33517;49.866;8.320;2023-06-14T14:11:12;100311.09;;;28.66;26.90
12868;BME280;33517;49.866;8.320;2023-06-14T14:14:04;100309.28;;;28.57;26.90
12868;BME280;33517;49.866;8.320;2023-06-14T14:16:56;100311.75;;;28.19;27.30
12868;BME280;33517;49.866;8.320;2023-06-14T14:19:49;100306.94;;;27.73;28.19
12868;BME280;33517;49.866;8.320;2023-06-14T14:22:41;100305.47;;;27.42;28.75
12868;BME280;33517;49.866;8.320;2023-06-14T14:25:33;100299.03;;;27.33;28.29
12868;BME280;33517;49.866;8.320;2023-06-14T14:28:24;100299.59;;;27.14;28.52
12868;BME280;33517;49.866;8.320;2023-06-14T14:31:16;100297.16;;;27.23;29.50
12868;BME280;33517;49.866;8.320;2023-06-14T14:34:08;100304.47;;;27.17;29.66
12868;BME280;33517;49.866;8.320;2023-06-14T14:37:01;100308.50;;;27.20;30.15
12868;BME280;33517;49.866;8.320;2023-06-14T14:39:53;100316.63;;;27.15;29.64
12868;BME280;33517;49.866;8.320;2023-06-14T14:42:45;100310.72;;;27.08;29.35
12868;BME280;33517;49.866;8.320;2023-06-14T14:45:37;100312.84;;;27.21;28.92
12868;BME280;33517;49.866;8.320;2023-06-14T14:48:29;100311.50;;;27.13;28.47
12868;BME280;33517;49.866;8.320;2023-06-14T14:51:21;100302.44;;;26.79;29.70
12868;BME280;33517;49.866;8.320;2023-06-14T14:54:14;100314.34;;;26.58;29.05
12868;BME280;33517;49.866;8.320;2023-06-14T14:57:06;100308.88;;;26.83;29.08
12868;BME280;33517;49.866;8.320;2023-06-14T14:59:59;100303.19;;;27.00;28.73
12868;BME280;33517;49.866;8.320;2023-06-14T15:02:51;100296.44;;;26.97;28.53
12868;BME280;33517;49.866;8.320;2023-06-14T15:05:42;100303.69;;;27.07;28.14